Time;durP1;ratioP1;P1;durP2;ratioP2;P2;SDS_P1;SDS_P2;PMS_P1;PMS_P2;Temp;Humidity;BMP_temperature;BMP_pressure;BME280_temperature;BME280_humidity;BME280_pressure;Samples;Min_cycle;Max_cycle;Signal;HPM_P1;HPM_P2
2022/07/10 00:00:28;;;;;;;4.78;1.55;;;19.20;99.90;;;;;;4970611;28;20032;-91
2022/07/10 00:02:54;;;;;;;2.00;1.60;;;19.20;99.90;;;;;;4970665;28;20101;-92
2022/07/10 00:05:20;;;;;;;5.80;1.90;;;19.20;99.90;;;;;;4970576;28;20042;-85
2022/07/10 00:07:47;;;;;;;1.90;1.70;;;19.10;99.90;;;;;;4970102;28;20023;-86
2022/07/10 00:10:13;;;;;;;3.20;1.67;;;19.10;99.90;;;;;;4986085;28;20399;-86
2022/07/10 00:12:39;;;;;;;2.15;1.50;;;;;;;;;;4970163;28;20023;-86
2022/07/10 00:15:05;;;;;;;3.33;1.70;;;18.90;99.90;;;;;;4970493;28;20734;-86
2022/07/10 00:17:31;;;;;;;1.65;1.55;;;18.90;99.90;;;;;;4970019;28;20050;-86
2022/07/10 00:19:58;;;;;;;9.45;1.90;;;18.80;99.90;;;;;;4970449;28;20034;-87
2022/07/10 00:22:23;;;;;;;3.05;1.60;;;18.70;99.90;;;;;;4970278;28;20081;-92
2022/07/10 00:24:50;;;;;;;3.65;1.83;;;18.80;99.90;;;;;;4969994;28;20034;-86
2022/07/10 00:27:17;;;;;;;2.08;1.60;;;18.70;99.90;;;;;;4969894;28;20035;-86
2022/07/10 00:29:43;;;;;;;5.65;1.63;;;18.70;99.90;;;;;;4970647;28;20027;-90
2022/07/10 00:32:09;;;;;;;3.63;1.63;;;;;;;;;;4970192;28;20447;-90
2022/07/10 00:34:35;;;;;;;3.63;1.70;;;18.70;99.90;;;;;;4968921;28;20745;-91
2022/07/10 00:37:01;;;;;;;2.58;1.60;;;18.70;99.90;;;;;;4985077;28;20034;-88
2022/07/10 00:39:27;;;;;;;2.60;1.70;;;;;;;;;;4970029;28;20023;-86
2022/07/10 00:41:53;;;;;;;4.32;1.70;;;18.60;99.90;;;;;;4969757;28;20034;-86
2022/07/10 00:44:18;;;;;;;2.60;1.65;;;18.50;99.90;;;;;;4984878;28;20023;-86
2022/07/10 00:46:44;;;;;;;2.03;1.80;;;18.40;99.90;;;;;;4970920;28;20031;-85
2022/07/10 00:49:10;;;;;;;2.55;1.80;;;18.40;99.90;;;;;;4970687;28;20046;-91
2022/07/10 00:51:37;;;;;;;2.22;1.80;;;18.30;99.90;;;;;;4969878;28;20513;-92
2022/07/10 00:54:03;;;;;;;2.10;1.60;;;;;;;;;;4985126;28;20537;-86
2022/07/10 00:56:29;;;;;;;2.60;2.20;;;;;;;;;;4969834;28;20027;-85
2022/07/10 00:58:56;;;;;;;2.85;2.00;;;;;;;;;;4969869;28;20458;-86
2022/07/10 01:01:22;;;;;;;3.65;2.13;;;18.20;99.90;;;;;;4971946;28;20122;-86
2022/07/10 01:03:49;;;;;;;2.58;1.98;;;18.30;99.90;;;;;;4988804;28;20035;-85
2022/07/10 01:06:15;;;;;;;6.20;1.80;;;18.20;99.90;;;;;;4974458;28;20045;-88
2022/07/10 01:08:42;;;;;;;2.95;2.00;;;18.20;99.90;;;;;;4974396;28;20019;-86
2022/07/10 01:11:09;;;;;;;5.50;1.92;;;18.10;99.90;;;;;;4973699;28;20023;-86
2022/07/10 01:13:36;;;;;;;2.10;1.90;;;18.20;99.90;;;;;;4973478;28;20030;-91
2022/07/10 01:16:02;;;;;;;2.80;2.10;;;18.20;99.90;;;;;;4972286;28;20085;-92
2022/07/10 01:18:28;;;;;;;3.95;1.83;;;18.10;99.90;;;;;;4973751;28;20191;-92
2022/07/10 01:20:56;;;;;;;5.13;2.05;;;18.00;99.90;;;;;;4988070;28;20487;-91
2022/07/10 01:23:23;;;;;;;2.28;2.08;;;;;;;;;;4972370;28;20049;-86
2022/07/10 01:25:49;;;;;;;1.98;1.80;;;18.00;99.90;;;;;;4973056;28;20047;-86
2022/07/10 01:28:20;;;;;;;2.58;2.20;;;17.90;99.90;;;;;;4989265;28;20026;-87
2022/07/10 01:30:47;;;;;;;2.72;2.15;;;17.80;99.90;;;;;;4973812;28;20030;-86
2022/07/10 01:33:12;;;;;;;4.47;2.00;;;17.60;99.90;;;;;;4974063;28;20065;-91
2022/07/10 01:35:39;;;;;;;3.85;2.30;;;17.60;99.90;;;;;;4973062;28;20066;-89
2022/07/10 01:38:05;;;;;;;2.22;2.03;;;17.50;99.90;;;;;;4973369;28;20479;-86
2022/07/10 01:40:30;;;;;;;4.13;1.95;;;17.50;99.90;;;;;;4973042;28;20421;-91
2022/07/10 01:42:56;;;;;;;2.88;2.20;;;17.40;99.90;;;;;;4988195;28;20061;-86
2022/07/10 01:45:22;;;;;;;2.30;2.10;;;17.50;99.90;;;;;;4973209;28;20056;-86
2022/07/10 01:47:48;;;;;;;2.55;2.13;;;17.40;99.90;;;;;;4972664;28;20068;-86
2022/07/10 01:50:13;;;;;;;2.05;1.92;;;17.30;99.90;;;;;;4973798;28;20077;-92
2022/07/10 01:52:40;;;;;;;10.77;2.20;;;17.30;99.90;;;;;;4987696;28;20065;-85
2022/07/10 01:55:06;;;;;;;3.53;2.00;;;17.30;99.90;;;;;;4987718;28;20501;-92
2022/07/10 01:57:32;;;;;;;2.60;2.10;;;17.20;99.90;;;;;;4987577;28;20039;-86
2022/07/10 01:59:58;;;;;;;4.63;2.00;;;17.30;99.90;;;;;;4972680;28;20042;-92
2022/07/10 02:02:24;;;;;;;2.33;2.13;;;;;;;;;;4972629;28;20514;-86
2022/07/10 02:04:50;;;;;;;5.20;2.22;;;;;;;;;;4972488;28;20030;-86
2022/07/10 02:07:18;;;;;;;2.70;2.20;;;17.20;99.90;;;;;;4973209;28;20570;-87
2022/07/10 02:09:45;;;;;;;2.47;2.10;;;17.20;99.90;;;;;;4973233;28;20034;-92
2022/07/10 02:12:14;;;;;;;2.55;2.00;;;16.80;99.90;;;;;;4987608;28;20034;-91
2022/07/10 02:14:41;;;;;;;2.38;2.00;;;17.20;99.90;;;;;;4972369;28;20403;-86
2022/07/10 02:17:07;;;;;;;3.63;1.90;;;17.10;99.90;;;;;;4987422;28;20399;-91
2022/07/10 02:19:33;;;;;;;3.22;2.17;;;;;;;;;;4972397;28;20018;-91
2022/07/10 02:21:59;;;;;;;2.30;2.05;;;17.10;99.90;;;;;;4971069;28;20035;-86
2022/07/10 02:24:25;;;;;;;3.00;2.10;;;17.00;99.90;;;;;;4972192;28;20031;-92
2022/07/10 02:26:51;;;;;;;3.15;2.10;;;16.90;99.90;;;;;;4971943;28;20463;-89
2022/07/10 02:29:18;;;;;;;2.10;1.90;;;16.80;99.90;;;;;;4972911;28;20539;-85
2022/07/10 02:31:44;;;;;;;2.63;2.25;;;16.70;99.90;;;;;;4972618;28;20031;-86
2022/07/10 02:34:11;;;;;;;2.55;2.03;;;16.90;99.90;;;;;;4972228;28;20030;-91
2022/07/10 02:36:40;;;;;;;2.50;2.22;;;16.90;99.90;;;;;;4971790;28;20026;-87
2022/07/10 02:39:07;;;;;;;3.33;2.17;;;;;;;;;;4972284;28;20066;-85
2022/07/10 02:41:33;;;;;;;3.65;2.20;;;17.00;99.90;;;;;;4971716;28;20077;-86
2022/07/10 02:43:58;;;;;;;3.42;2.38;;;17.10;99.90;;;;;;4972237;28;20030;-90
2022/07/10 02:46:25;;;;;;;3.80;2.00;;;17.00;99.90;;;;;;4971975;28;20105;-91
2022/07/10 02:48:50;;;;;;;2.95;2.40;;;16.90;99.90;;;;;;4986529;28;20089;-88
2022/07/10 02:51:16;;;;;;;2.95;2.28;;;16.80;99.90;;;;;;4972689;28;20376;-86
2022/07/10 02:53:42;;;;;;;2.97;2.30;;;16.70;99.90;;;;;;4971580;28;20444;-92
2022/07/10 02:56:07;;;;;;;2.92;2.22;;;16.70;99.90;;;;;;4971736;28;20519;-91
2022/07/10 02:58:34;;;;;;;3.97;2.30;;;16.70;99.90;;;;;;4986382;28;20114;-91
2022/07/10 03:01:00;;;;;;;2.75;2.10;;;16.60;99.90;;;;;;4971555;28;20035;-86
2022/07/10 03:03:26;;;;;;;2.60;2.33;;;;;;;;;;4970546;28;20030;-90
2022/07/10 03:05:52;;;;;;;2.90;2.20;;;16.40;99.90;;;;;;4969849;28;20439;-86
2022/07/10 03:08:18;;;;;;;2.83;2.10;;;16.30;99.90;;;;;;4972426;28;20026;-91
2022/07/10 03:10:44;;;;;;;3.25;2.40;;;16.40;99.90;;;;;;4972263;28;20019;-86
2022/07/10 03:13:10;;;;;;;3.78;2.25;;;16.30;99.90;;;;;;4971483;28;20089;-86
2022/07/10 03:15:35;;;;;;;3.45;2.25;;;16.30;99.90;;;;;;4970950;28;20151;-91
2022/07/10 03:18:01;;;;;;;3.00;2.30;;;16.30;99.90;;;;;;4986278;28;20027;-86
2022/07/10 03:20:27;;;;;;;2.05;1.88;;;16.30;99.90;;;;;;4971162;28;20034;-91
2022/07/10 03:22:53;;;;;;;2.92;2.40;;;;;;;;;;4970505;28;20019;-91
2022/07/10 03:25:19;;;;;;;2.40;2.20;;;16.30;99.90;;;;;;4971746;28;20042;-86
2022/07/10 03:27:45;;;;;;;3.17;2.35;;;16.20;99.90;;;;;;4986531;28;20035;-91
2022/07/10 03:30:11;;;;;;;3.60;2.65;;;16.30;99.90;;;;;;4971009;28;20037;-85
2022/07/10 03:32:37;;;;;;;4.72;2.35;;;16.20;99.90;;;;;;4970560;28;20035;-92
2022/07/10 03:35:03;;;;;;;2.88;2.60;;;16.40;99.90;;;;;;4971322;28;20031;-85
2022/07/10 03:37:28;;;;;;;2.60;2.33;;;16.40;99.90;;;;;;4970841;28;20041;-86
2022/07/10 03:39:54;;;;;;;3.15;2.80;;;16.50;99.90;;;;;;4970821;28;20431;-91
2022/07/10 03:42:20;;;;;;;2.97;2.50;;;16.50;99.90;;;;;;4971442;28;20062;-85
2022/07/10 03:44:46;;;;;;;2.88;2.30;;;16.40;99.90;;;;;;4971180;28;20030;-91
2022/07/10 03:47:12;;;;;;;3.45;2.40;;;16.90;99.90;;;;;;4970505;28;20035;-86
2022/07/10 03:49:41;;;;;;;5.43;2.70;;;16.30;99.90;;;;;;4985512;28;20033;-86
2022/07/10 03:52:07;;;;;;;2.65;2.42;;;16.30;99.90;;;;;;4970722;28;20081;-92
2022/07/10 03:54:33;;;;;;;6.03;2.33;;;16.10;99.90;;;;;;4985230;28;20479;-91
2022/07/10 03:59:44;;;;;;;6.78;2.55;;;16.10;99.90;;;;;;4970162;28;20030;-92
2022/07/10 04:02:10;;;;;;;3.45;2.58;;;;;;;;;;4970459;28;20031;-85
2022/07/10 04:04:35;;;;;;;2.90;2.60;;;15.80;99.90;;;;;;4968575;28;20027;-85
2022/07/10 04:07:01;;;;;;;3.58;2.47;;;15.80;99.90;;;;;;4985051;28;20407;-86
2022/07/10 04:09:27;;;;;;;5.55;2.63;;;15.80;99.90;;;;;;4970172;28;20090;-85
2022/07/10 04:11:53;;;;;;;3.42;2.70;;;15.70;99.90;;;;;;4984891;28;20122;-86
2022/07/10 04:14:18;;;;;;;4.47;2.95;;;15.80;99.90;;;;;;4985681;28;20031;-85
2022/07/10 04:16:44;;;;;;;3.50;2.50;;;15.80;99.90;;;;;;4969769;28;20027;-86
2022/07/10 04:19:10;;;;;;;5.30;2.72;;;15.80;99.90;;;;;;4984924;28;20023;-86
2022/07/10 04:21:36;;;;;;;5.18;2.80;;;15.80;99.90;;;;;;4969699;28;20058;-85
2022/07/10 04:24:03;;;;;;;3.22;2.70;;;15.80;99.90;;;;;;4969955;28;20015;-85
2022/07/10 04:26:29;;;;;;;2.92;2.70;;;;;;;;;;4969746;28;20038;-85
2022/07/10 04:28:55;;;;;;;6.00;2.72;;;;;;;;;;4970077;28;20019;-86
2022/07/10 04:31:21;;;;;;;4.28;2.50;;;;;;;;;;4969309;28;20027;-86
2022/07/10 04:33:48;;;;;;;2.67;2.28;;;;;;;;;;4970638;28;20104;-90
2022/07/10 04:36:13;;;;;;;4.25;2.88;;;15.70;99.90;;;;;;4969375;28;20035;-88
2022/07/10 04:38:39;;;;;;;3.75;2.40;;;15.60;99.90;;;;;;4970046;28;20018;-86
2022/07/10 04:41:05;;;;;;;3.38;2.60;;;15.60;99.90;;;;;;4969826;28;20113;-86
2022/07/10 04:43:31;;;;;;;2.80;2.50;;;15.50;99.90;;;;;;4969680;28;20025;-86
2022/07/10 04:45:56;;;;;;;2.53;2.33;;;15.40;99.90;;;;;;4984500;28;20114;-86
2022/07/10 04:48:22;;;;;;;2.90;2.50;;;15.40;99.90;;;;;;4970127;28;20030;-86
2022/07/10 04:50:48;;;;;;;2.83;2.55;;;15.40;99.90;;;;;;4970181;28;20049;-89
2022/07/10 04:53:14;;;;;;;2.80;2.38;;;15.50;99.90;;;;;;4969664;28;20023;-86
2022/07/10 04:55:39;;;;;;;3.70;2.53;;;15.60;99.90;;;;;;4984215;28;20027;-85
2022/07/10 04:58:05;;;;;;;2.70;2.50;;;;;;;;;;4984583;28;20023;-86
2022/07/10 05:00:31;;;;;;;3.80;2.50;;;15.60;99.90;;;;;;4968057;28;20460;-86
2022/07/10 05:02:56;;;;;;;3.47;2.45;;;15.60;99.90;;;;;;4969677;28;20022;-86
2022/07/10 05:05:22;;;;;;;2.30;2.10;;;15.70;99.90;;;;;;4970354;28;20031;-86
2022/07/10 05:07:49;;;;;;;3.00;2.00;;;15.60;99.90;;;;;;4970222;28;20494;-86
2022/07/10 05:10:15;;;;;;;2.42;2.20;;;;;;;;;;4969550;28;20475;-85
2022/07/10 05:12:40;;;;;;;2.60;2.40;;;15.50;99.90;;;;;;4969235;28;20102;-85
2022/07/10 05:15:07;;;;;;;2.72;2.50;;;15.50;99.90;;;;;;4969349;28;20110;-85
2022/07/10 05:17:33;;;;;;;3.50;2.50;;;15.50;99.90;;;;;;4969503;28;20023;-86
2022/07/10 05:19:58;;;;;;;3.83;2.10;;;15.50;99.90;;;;;;4969290;28;20046;-86
2022/07/10 05:22:24;;;;;;;3.45;2.28;;;15.60;99.90;;;;;;4983957;28;20083;-85
2022/07/10 05:24:50;;;;;;;3.08;2.70;;;15.60;99.90;;;;;;4970190;28;20031;-91
2022/07/10 05:27:20;;;;;;;2.90;2.30;;;15.60;99.90;;;;;;4969999;28;20061;-93
2022/07/10 05:29:46;;;;;;;3.20;2.58;;;15.70;99.90;;;;;;4969558;28;20507;-86
2022/07/10 05:32:12;;;;;;;4.13;2.35;;;;;;;;;;4969457;28;20031;-85
2022/07/10 05:34:37;;;;;;;4.22;2.78;;;15.70;99.90;;;;;;4967665;28;20026;-85
2022/07/10 05:37:04;;;;;;;3.53;2.47;;;15.70;99.90;;;;;;4969244;28;20027;-86
2022/07/10 05:39:30;;;;;;;3.92;2.60;;;;;;;;;;4984045;28;20033;-87
2022/07/10 05:41:57;;;;;;;6.65;2.60;;;15.70;99.90;;;;;;4969234;28;20062;-85
2022/07/10 05:44:23;;;;;;;8.65;2.70;;;;;;;;;;4970065;28;20026;-86
2022/07/10 05:46:49;;;;;;;4.00;2.70;;;15.80;99.90;;;;;;4970605;28;20047;-86
2022/07/10 05:49:15;;;;;;;4.20;2.80;;;15.80;99.90;;;;;;4972631;28;20049;-88
2022/07/10 05:51:42;;;;;;;5.47;3.03;;;;;;;;;;4971004;28;20399;-85
2022/07/10 05:54:08;;;;;;;4.47;2.78;;;16.00;99.90;;;;;;4972578;28;20113;-85
2022/07/10 05:56:34;;;;;;;4.45;2.53;;;16.00;99.90;;;;;;4972132;28;20102;-84
2022/07/10 05:58:59;;;;;;;4.35;2.40;;;16.00;99.90;;;;;;4972368;28;20057;-84
2022/07/10 06:01:28;;;;;;;4.70;2.60;;;16.10;99.90;;;;;;4971093;28;20113;-84
2022/07/10 06:03:54;;;;;;;3.85;2.80;;;;;;;;;;4973327;28;20102;-87
2022/07/10 06:06:20;;;;;;;3.25;2.70;;;;;;;;;;4973138;28;20376;-85
2022/07/10 06:08:46;;;;;;;3.95;2.30;;;16.20;99.90;;;;;;4972118;28;20047;-84
2022/07/10 06:11:12;;;;;;;2.72;2.50;;;;;;;;;;4972209;28;20545;-86
2022/07/10 06:13:38;;;;;;;3.85;2.50;;;16.40;99.90;;;;;;4971821;28;20148;-85
2022/07/10 06:16:05;;;;;;;3.13;2.20;;;16.40;99.90;;;;;;4972102;28;20034;-85
2022/07/10 06:18:33;;;;;;;2.45;2.03;;;16.50;99.90;;;;;;4971956;28;20018;-86
2022/07/10 06:20:59;;;;;;;2.28;2.00;;;16.60;99.90;;;;;;4986973;28;20038;-85
2022/07/10 06:23:25;;;;;;;2.03;1.85;;;;;;;;;;4971591;28;20612;-85
2022/07/10 06:25:51;;;;;;;2.28;2.08;;;16.80;99.90;;;;;;4972346;28;20082;-85
2022/07/10 06:28:17;;;;;;;2.97;1.75;;;16.90;99.90;;;;;;4986853;28;20034;-85
2022/07/10 06:30:43;;;;;;;2.15;1.80;;;16.90;99.90;;;;;;4986519;28;20038;-86
2022/07/10 06:33:09;;;;;;;2.70;1.75;;;17.00;99.90;;;;;;4971928;28;20031;-85
2022/07/10 06:35:35;;;;;;;2.75;1.75;;;17.00;99.90;;;;;;4971910;28;20163;-90
2022/07/10 06:38:01;;;;;;;6.90;2.30;;;17.00;99.90;;;;;;4971968;28;20027;-87
2022/07/10 06:40:29;;;;;;;1.92;1.60;;;17.10;99.90;;;;;;4971762;28;20042;-84
2022/07/10 06:42:55;;;;;;;2.00;1.80;;;17.10;99.90;;;;;;4972781;28;20030;-86
2022/07/10 06:45:20;;;;;;;2.05;1.67;;;17.10;99.90;;;;;;4971663;28;20038;-85
2022/07/10 06:47:56;;;;;;;4.45;1.67;;;;;;;;;;4971631;28;20313;-84
2022/07/10 06:50:23;;;;;;;2.22;1.70;;;17.30;99.90;;;;;;4972187;28;20054;-86
2022/07/10 06:52:49;;;;;;;1.70;1.60;;;17.40;99.90;;;;;;4971383;28;20039;-85
2022/07/10 06:55:15;;;;;;;2.72;1.70;;;17.40;99.90;;;;;;4971675;28;20050;-85
2022/07/10 06:57:41;;;;;;;2.20;1.60;;;17.30;99.90;;;;;;4985185;28;20074;-85
2022/07/10 07:00:09;;;;;;;2.63;1.58;;;17.40;99.90;;;;;;4971091;28;20034;-89
2022/07/10 07:02:35;;;;;;;2.15;1.63;;;17.50;99.90;;;;;;4981689;28;20029;-85
2022/07/10 07:05:01;;;;;;;1.70;1.60;;;17.50;99.90;;;;;;4994046;28;20121;-87
2022/07/10 07:07:28;;;;;;;2.70;1.70;;;17.70;99.90;;;;;;4978128;28;20053;-84
2022/07/10 07:09:53;;;;;;;4.18;1.40;;;17.80;99.90;;;;;;4982596;28;20023;-94
2022/07/10 07:12:19;;;;;;;2.95;1.70;;;17.80;99.90;;;;;;4971237;28;20033;-86
2022/07/10 07:14:45;;;;;;;4.30;1.60;;;18.00;99.90;;;;;;4972076;28;20030;-89
2022/07/10 07:17:13;;;;;;;2.58;1.30;;;18.10;99.90;;;;;;4981754;28;20546;-84
2022/07/10 07:25:09;;;;;;;1.83;1.40;;;18.30;99.90;;;;;;4957271;28;20075;-89
2022/07/10 07:27:36;;;;;;;2.78;1.42;;;18.40;99.90;;;;;;4989954;28;20516;-87
2022/07/10 07:30:06;;;;;;;6.20;1.50;;;18.40;99.90;;;;;;4977595;28;20436;-86
2022/07/10 07:32:33;;;;;;;2.83;1.42;;;18.50;99.90;;;;;;4994939;28;21147;-86
2022/07/10 07:34:59;;;;;;;3.90;1.55;;;18.60;99.90;;;;;;4981415;28;20121;-85
2022/07/10 07:37:46;;;;;;;5.63;1.67;;;18.60;99.90;;;;;;4980306;28;20028;-85
2022/07/10 07:40:13;;;;;;;2.75;1.48;;;18.60;99.90;;;;;;4961365;28;20019;-85
2022/07/10 07:42:40;;;;;;;2.92;1.40;;;18.70;99.90;;;;;;4992735;28;20042;-84
2022/07/10 07:45:08;;;;;;;1.20;1.10;;;18.80;99.90;;;;;;4977608;28;20030;-85
2022/07/10 07:48:02;;;;;;;6.67;1.67;;;18.90;99.90;;;;;;4979281;28;20126;-84
2022/07/10 07:50:33;;;;;;;1.33;1.20;;;19.10;99.90;;;;;;4970123;28;20411;-85
2022/07/10 07:53:00;;;;;;;5.05;1.30;;;19.20;99.90;;;;;;4978173;28;20541;-85
2022/07/10 07:55:26;;;;;;;2.95;1.15;;;19.20;99.10;;;;;;4978734;28;20033;-86
2022/07/10 07:57:54;;;;;;;3.40;1.40;;;19.40;99.90;;;;;;4972876;28;20506;-85
2022/07/10 08:00:22;;;;;;;3.13;1.17;;;19.40;99.10;;;;;;4970767;28;20399;-86
2022/07/10 08:02:48;;;;;;;4.35;1.48;;;19.50;97.00;;;;;;4963473;28;20415;-85
2022/07/10 08:05:14;;;;;;;1.85;1.23;;;19.60;95.40;;;;;;4979927;28;20018;-86
2022/07/10 08:07:43;;;;;;;2.63;1.30;;;19.70;90.40;;;;;;4979698;28;20044;-85
2022/07/10 08:10:11;;;;;;;1.45;1.20;;;19.80;92.70;;;;;;4979154;28;20045;-85
2022/07/10 08:12:36;;;;;;;;;;;19.90;90.00;;;;;;4975273;28;20058;-85
2022/07/10 08:15:03;;;;;;;3.00;1.27;;;20.00;93.30;;;;;;4982179;28;20360;-84
2022/07/10 08:17:29;;;;;;;1.25;0.90;;;20.20;93.70;;;;;;4978788;28;20138;-86
2022/07/10 08:19:54;;;;;;;1.85;1.30;;;20.20;79.60;;;;;;4965441;28;20035;-86
2022/07/10 08:22:20;;;;;;;1.70;1.25;;;20.20;82.50;;;;;;4993350;28;20113;-85
2022/07/10 08:24:46;;;;;;;2.30;1.30;;;20.40;91.20;;;;;;4976961;28;20031;-85
2022/07/10 08:27:12;;;;;;;2.63;1.20;;;20.50;83.70;;;;;;4977351;28;20042;-85
2022/07/10 08:29:38;;;;;;;2.20;1.00;;;20.60;90.60;;;;;;4979959;28;20018;-85
2022/07/10 08:32:05;;;;;;;2.70;1.00;;;20.80;91.40;;;;;;4969347;28;20030;-85
2022/07/10 08:34:32;;;;;;;1.27;1.10;;;20.80;80.00;;;;;;4973922;28;20026;-85
2022/07/10 08:36:58;;;;;;;0.82;0.80;;;20.90;78.00;;;;;;4976432;28;20026;-85
2022/07/10 08:39:24;;;;;;;1.58;1.00;;;20.90;80.80;;;;;;4985083;28;20039;-85
2022/07/10 08:41:50;;;;;;;0.98;0.90;;;21.10;84.20;;;;;;4974741;28;20082;-86
2022/07/10 08:44:19;;;;;;;1.27;1.00;;;21.30;83.60;;;;;;4992434;28;20125;-93
2022/07/10 08:46:45;;;;;;;3.20;1.20;;;21.20;77.60;;;;;;4969663;28;20031;-84
2022/07/10 08:49:13;;;;;;;1.83;1.02;;;21.30;67.30;;;;;;4968556;28;20113;-86
2022/07/10 08:51:56;;;;;;;1.65;1.02;;;21.40;78.70;;;;;;4975578;28;20038;-86
2022/07/10 08:54:22;;;;;;;4.50;1.30;;;21.60;70.90;;;;;;4971929;28;20033;-86
2022/07/10 08:56:48;;;;;;;6.50;1.20;;;21.60;67.10;;;;;;4962180;28;20407;-92
2022/07/10 08:59:15;;;;;;;5.65;1.10;;;21.70;69.80;;;;;;4979925;28;20077;-85
2022/07/10 09:01:41;;;;;;;1.30;1.20;;;21.90;74.70;;;;;;4976047;28;20038;-84
2022/07/10 09:04:06;;;;;;;9.23;1.30;;;22.00;72.80;;;;;;4980273;28;20498;-91
2022/07/10 09:06:32;;;;;;;1.42;1.20;;;;;;;;;;4981070;28;20089;-88
2022/07/10 09:09:00;;;;;;;2.90;1.02;;;22.10;72.90;;;;;;4979623;28;20446;-84
2022/07/10 09:11:28;;;;;;;;;;;22.10;69.70;;;;;;4976283;28;20111;-91
2022/07/10 09:14:07;;;;;;;2.28;1.20;;;22.20;73.80;;;;;;4950768;28;20258;-83
2022/07/10 09:16:35;;;;;;;1.95;1.27;;;22.20;67.30;;;;;;4954149;28;20019;-83
2022/07/10 09:19:20;;;;;;;;;;;22.30;69.40;;;;;;4960572;28;20019;-83
2022/07/10 09:21:51;;;;;;;1.65;1.30;;;22.40;71.50;;;;;;4962952;28;19910;-91
2022/07/10 09:24:19;;;;;;;3.38;1.38;;;22.30;60.10;;;;;;4972377;28;20041;-92
2022/07/10 09:27:03;;;;;;;3.33;1.40;;;22.40;65.00;;;;;;4968055;28;20035;-87
2022/07/10 09:29:29;;;;;;;1.45;1.10;;;22.40;60.60;;;;;;4980815;28;20436;-84
2022/07/10 09:32:00;;;;;;;2.33;1.20;;;22.60;67.10;;;;;;4983089;28;20030;-91
2022/07/10 09:34:41;;;;;;;2.08;1.10;;;22.70;67.80;;;;;;4973700;28;20027;-91
2022/07/10 09:37:27;;;;;;;1.90;1.25;;;22.90;60.50;;;;;;4973681;28;20029;-92
2022/07/10 09:39:56;;;;;;;2.05;1.20;;;22.90;58.70;;;;;;4973526;28;20499;-91
2022/07/10 09:42:49;;;;;;;3.97;1.33;;;22.70;58.00;;;;;;4988824;28;20031;-91
2022/07/10 09:45:16;;;;;;;4.50;1.40;;;23.00;63.50;;;;;;4968693;28;20081;-92
2022/07/10 09:47:44;;;;;;;2.22;1.60;;;23.10;51.40;;;;;;4953208;28;20070;-90
2022/07/10 09:50:24;;;;;;;3.15;1.33;;;23.10;60.80;;;;;;4954687;28;20035;-84
2022/07/10 09:53:04;;;;;;;1.75;1.30;;;23.30;55.40;;;;;;4953572;28;20032;-85
2022/07/10 09:55:32;;;;;;;3.10;1.42;;;23.30;60.20;;;;;;4953761;28;20031;-84
2022/07/10 09:58:08;;;;;;;1.48;1.38;;;23.30;58.20;;;;;;4965594;28;20038;-83
2022/07/10 10:00:45;;;;;;;1.83;1.40;;;23.50;58.10;;;;;;4970841;28;20034;-93
2022/07/10 10:03:14;;;;;;;3.05;1.48;;;23.60;60.70;;;;;;4954468;28;20078;-92
2022/07/10 10:06:00;;;;;;;2.75;1.33;;;23.40;49.00;;;;;;4953028;28;20037;-84
2022/07/10 10:08:34;;;;;;;2.45;1.52;;;23.60;61.20;;;;;;4955005;28;20078;-89
2022/07/10 10:11:01;;;;;;;2.78;1.63;;;23.90;58.40;;;;;;4961830;28;20042;-86
2022/07/10 10:13:30;;;;;;;2.42;1.48;;;23.60;46.50;;;;;;4972182;28;20391;-90
2022/07/10 10:15:56;;;;;;;2.97;1.50;;;23.40;52.60;;;;;;4974666;28;20027;-85
2022/07/10 10:18:23;;;;;;;2.80;1.52;;;23.70;55.40;;;;;;4988802;28;20035;-83
2022/07/10 10:20:51;;;;;;;1.48;1.38;;;23.70;43.30;;;;;;4982492;28;20047;-84
2022/07/10 10:23:20;;;;;;;1.98;1.33;;;23.60;53.70;;;;;;4982982;28;20035;-83
2022/07/10 10:25:51;;;;;;;1.60;1.50;;;23.70;48.60;;;;;;4967387;28;20027;-90
2022/07/10 10:28:23;;;;;;;3.22;1.60;;;24.00;49.30;;;;;;4961554;28;20031;-92
2022/07/10 10:30:59;;;;;;;2.53;1.55;;;23.70;51.20;;;;;;4952748;28;20862;-83
2022/07/10 10:33:42;;;;;;;1.63;1.40;;;23.90;51.30;;;;;;4953448;28;20047;-84
2022/07/10 10:36:09;;;;;;;1.70;1.60;;;24.20;52.00;;;;;;4954250;28;20042;-90
2022/07/10 10:38:56;;;;;;;2.23;1.70;;;24.30;53.90;;;;;;4972029;28;20442;-87
2022/07/10 10:41:26;;;;;;;4.50;1.70;;;24.30;44.00;;;;;;4970329;28;20034;-84
2022/07/10 10:44:13;;;;;;;13.57;4.35;;;24.40;46.20;;;;;;4970188;28;20023;-91
2022/07/10 10:46:54;;;;;;;2.45;1.67;;;24.40;48.80;;;;;;4967142;28;20043;-90
2022/07/10 10:49:21;;;;;;;1.90;1.40;;;24.40;45.20;;;;;;4953626;29;20031;-84
2022/07/10 10:52:15;;;;;;;5.17;2.13;;;24.40;46.00;;;;;;4952942;28;20539;-84
2022/07/10 10:54:56;;;;;;;2.78;1.45;;;24.40;42.20;;;;;;4953202;28;20346;-91
2022/07/10 10:57:22;;;;;;;2.20;1.52;;;24.50;43.60;;;;;;4952448;28;20082;-84
2022/07/10 10:59:49;;;;;;;6.40;2.42;;;24.40;43.00;;;;;;4952505;28;20032;-93
2022/07/10 11:02:24;;;;;;;11.15;4.40;;;24.60;45.00;;;;;;4952611;28;20031;-83
2022/07/10 11:04:51;;;;;;;3.70;1.52;;;24.70;45.20;;;;;;4952193;29;20031;-84
2022/07/10 11:07:54;;;;;;;2.42;1.50;;;24.80;46.80;;;;;;4954135;28;20142;-91
2022/07/10 11:10:29;;;;;;;3.70;1.90;;;24.90;47.60;;;;;;4952164;28;20232;-91
2022/07/10 11:13:15;;;;;;;8.65;4.78;;;25.10;45.20;;;;;;4960024;28;20046;-83
2022/07/10 11:15:43;;;;;;;3.50;1.40;;;25.20;46.30;;;;;;4970718;28;20088;-83
2022/07/10 11:18:14;;;;;;;1.52;1.42;;;25.20;43.00;;;;;;4971130;28;20050;-96
2022/07/10 11:20:42;;;;;;;3.20;1.70;;;25.20;45.00;;;;;;4959763;28;20081;-84
2022/07/10 11:23:38;;;;;;;6.45;1.60;;;25.30;46.80;;;;;;4970381;28;20029;-91
2022/07/10 11:26:12;;;;;;;1.75;1.50;;;25.30;44.00;;;;;;4951870;28;20515;-83
2022/07/10 11:28:52;;;;;;;3.35;1.90;;;25.00;39.10;;;;;;4960435;28;20042;-91
2022/07/10 11:31:22;;;;;;;1.92;1.60;;;25.20;42.40;;;;;;4963652;28;20444;-91
2022/07/10 11:33:51;;;;;;;3.65;1.85;;;25.30;43.70;;;;;;4950129;28;20035;-84
2022/07/10 11:36:31;;;;;;;3.13;1.75;;;25.40;43.80;;;;;;4951144;28;20512;-84
2022/07/10 11:38:59;;;;;;;3.72;1.80;;;25.50;44.90;;;;;;4954229;28;20019;-87
2022/07/10 11:41:25;;;;;;;4.95;1.67;;;25.50;44.60;;;;;;4986427;28;20027;-88
2022/07/10 11:44:03;;;;;;;2.40;1.67;;;25.50;44.20;;;;;;4960339;28;20036;-91
2022/07/10 11:46:33;;;;;;;3.45;1.50;;;25.50;44.00;;;;;;4990966;28;20022;-83
2022/07/10 11:49:04;;;;;;;3.08;1.42;;;25.30;43.60;;;;;;4978902;28;20499;-85
2022/07/10 11:51:32;;;;;;;2.20;1.63;;;25.30;41.90;;;;;;4970318;28;20086;-82
2022/07/10 11:54:04;;;;;;;4.38;1.52;;;25.00;39.30;;;;;;4971178;28;20027;-83
2022/07/10 11:56:35;;;;;;;4.78;2.17;;;25.00;38.50;;;;;;4970168;28;20031;-83
2022/07/10 11:59:01;;;;;;;6.25;3.30;;;25.00;41.80;;;;;;4970488;28;20101;-82
2022/07/10 12:01:29;;;;;;;5.63;2.85;;;25.20;41.70;;;;;;4971123;28;20027;-89
2022/07/10 12:04:03;;;;;;;;;;;25.10;39.60;;;;;;4971511;28;20496;-82
2022/07/10 12:06:31;;;;;;;4.53;1.80;;;25.10;40.00;;;;;;4970897;28;19921;-82
2022/07/10 12:09:04;;;;;;;2.55;2.00;;;25.10;39.40;;;;;;4971429;28;20077;-89
2022/07/10 12:11:30;;;;;;;3.85;1.80;;;25.20;40.10;;;;;;4969970;28;20431;-82
2022/07/10 12:14:08;;;;;;;2.80;1.95;;;25.40;42.00;;;;;;4970914;28;20034;-82
2022/07/10 12:16:38;;;;;;;1.70;1.60;;;25.50;42.00;;;;;;4968770;28;20031;-83
2022/07/10 12:19:06;;;;;;;2.92;2.60;;;25.30;39.50;;;;;;4970120;28;20030;-82
2022/07/10 12:21:32;;;;;;;7.55;4.75;;;25.30;41.10;;;;;;4969921;28;20055;-87
2022/07/10 12:23:59;;;;;;;6.63;3.30;;;25.40;37.90;;;;;;4970902;28;20147;-82
2022/07/10 12:26:39;;;;;;;2.80;1.50;;;25.40;40.10;;;;;;4970545;28;20122;-82
2022/07/10 12:29:05;;;;;;;2.05;1.88;;;25.60;41.50;;;;;;4970016;28;20037;-83
2022/07/10 12:31:37;;;;;;;1.70;1.60;;;25.70;40.00;;;;;;4969684;28;20450;-84
2022/07/10 12:34:05;;;;;;;2.60;2.10;;;25.70;41.60;;;;;;4970054;28;20034;-83
2022/07/10 12:36:44;;;;;;;;;;;25.60;38.90;;;;;;4969890;28;20031;-82
2022/07/10 12:39:10;;;;;;;2.13;1.88;;;25.60;37.40;;;;;;4970178;28;19906;-88
2022/07/10 12:42:01;;;;;;;3.00;1.75;;;25.60;40.70;;;;;;4969684;28;20058;-83
2022/07/10 12:44:46;;;;;;;2.33;1.70;;;25.70;41.90;;;;;;4970730;28;20023;-82
2022/07/10 12:47:16;;;;;;;2.50;1.70;;;25.60;38.80;;;;;;4969709;28;20042;-89
2022/07/10 12:50:03;;;;;;;2.65;1.63;;;25.50;40.10;;;;;;4968504;28;20475;-83
2022/07/10 12:52:35;;;;;;;1.70;1.48;;;25.60;41.80;;;;;;4970053;28;20122;-85
2022/07/10 12:55:15;;;;;;;5.90;1.70;;;25.80;42.40;;;;;;4969891;28;20401;-83
2022/07/10 12:57:59;;;;;;;2.40;1.88;;;25.80;37.30;;;;;;4973687;28;20506;-81
2022/07/10 13:00:34;;;;;;;2.10;1.50;;;25.80;39.20;;;;;;4978658;28;20027;-83
2022/07/10 13:03:08;;;;;;;3.70;1.70;;;25.90;41.50;;;;;;4976666;28;20519;-82
2022/07/10 13:05:42;;;;;;;1.50;1.40;;;26.00;41.20;;;;;;4977629;28;20110;-83
2022/07/10 13:08:11;;;;;;;2.78;1.40;;;25.90;39.30;;;;;;4974322;28;20399;-83
2022/07/10 13:10:37;;;;;;;4.20;1.52;;;25.80;37.00;;;;;;4973205;28;20027;-82
2022/07/10 13:13:04;;;;;;;1.38;1.27;;;26.00;40.10;;;;;;4973776;28;20023;-84